Time;durP1;ratioP1;P1;durP2;ratioP2;P2;SDS_P1;SDS_P2;PMS_P1;PMS_P2;Temp;Humidity;BMP_temperature;BMP_pressure;BME280_temperature;BME280_humidity;BME280_pressure;Samples;Min_cycle;Max_cycle;Signal;HPM_P1;HPM_P2
2023/04/29 00:01:24;;;;;;;56.10;33.70;;;14.10;92.00;;;13.31;76.85;100231.16;5047283;28;20055;-77
2023/04/29 00:03:51;;;;;;;55.42;34.40;;;14.00;91.90;;;13.34;76.61;100238.72;5048996;28;20045;-75
2023/04/29 00:06:19;;;;;;;53.20;32.80;;;14.00;91.80;;;13.32;76.68;100241.63;5049813;28;20565;-77
2023/04/29 00:08:46;;;;;;;51.58;32.42;;;14.00;91.80;;;13.33;76.52;100229.88;5048899;28;20507;-77
2023/04/29 00:11:13;;;;;;;51.60;31.67;;;14.00;91.80;;;13.35;76.67;100235.00;5050001;28;20072;-77
2023/04/29 00:13:40;;;;;;;54.25;31.67;;;14.00;91.80;;;13.35;76.33;100238.47;5040394;28;20067;-77
2023/04/29 00:16:09;;;;;;;54.55;32.60;;;14.00;91.80;;;13.36;76.43;100237.41;5041280;28;20115;-76
2023/04/29 00:18:37;;;;;;;49.63;30.75;;;14.00;91.60;;;13.36;76.23;100248.13;5052243;28;20033;-77
2023/04/29 00:21:05;;;;;;;48.80;30.50;;;14.00;91.60;;;13.34;76.00;100249.44;5049476;28;20049;-77
2023/04/29 00:23:33;;;;;;;55.97;33.45;;;14.00;91.40;;;13.32;76.01;100248.84;5041765;28;20528;-77
2023/04/29 00:26:00;;;;;;;50.92;31.58;;;14.00;91.40;;;13.31;76.11;100249.88;5051803;28;20053;-76
2023/04/29 00:28:27;;;;;;;48.80;31.17;;;14.00;91.40;;;13.31;75.72;100255.25;5040337;28;20136;-77
2023/04/29 00:30:55;;;;;;;53.25;31.38;;;14.00;91.40;;;13.28;75.93;100259.22;5036716;28;20051;-77
2023/04/29 00:33:22;;;;;;;53.08;32.67;;;14.00;91.50;;;13.25;75.68;100267.72;5043899;28;20056;-77
2023/04/29 00:35:51;;;;;;;49.15;30.67;;;13.90;91.30;;;13.18;75.88;100275.03;5048366;28;20497;-76
2023/04/29 00:38:19;;;;;;;48.13;30.30;;;13.90;91.40;;;13.19;75.82;100278.53;5044121;28;20528;-76
2023/04/29 00:40:46;;;;;;;56.60;33.25;;;13.90;91.40;;;13.20;76.16;100280.97;5046343;28;20041;-75
2023/04/29 00:43:13;;;;;;;60.13;34.88;;;13.90;91.60;;;13.16;76.04;100271.75;5047058;28;20116;-76
2023/04/29 00:45:41;;;;;;;56.42;32.00;;;13.90;91.50;;;13.17;75.85;100281.41;5048024;28;20503;-77
2023/04/29 00:48:08;;;;;;;59.78;33.03;;;13.80;91.20;;;13.15;75.65;100275.50;5038347;28;20144;-75
2023/04/29 00:50:36;;;;;;;61.72;36.47;;;13.80;91.30;;;13.09;75.80;100281.78;5044242;28;20134;-76
2023/04/29 00:53:05;;;;;;;67.18;37.70;;;13.80;91.70;;;13.04;75.80;100287.03;5042800;28;20123;-78
2023/04/29 00:55:33;;;;;;;72.55;40.50;;;13.70;91.60;;;12.95;76.17;100291.91;5046298;28;20762;-77
2023/04/29 00:58:03;;;;;;;67.63;38.90;;;13.70;91.60;;;12.95;76.03;100294.56;5049142;28;20037;-77
2023/04/29 01:00:31;;;;;;;73.72;39.58;;;13.70;91.60;;;12.96;75.82;100292.72;5043856;28;20611;-77
2023/04/29 01:02:59;;;;;;;70.47;40.85;;;13.70;91.60;;;12.98;75.58;100298.63;5047036;28;20048;-75
2023/04/29 01:05:26;;;;;;;70.43;38.78;;;13.70;91.40;;;12.98;75.58;100302.16;5047535;28;20117;-77
2023/04/29 01:08:11;;;;;;;82.82;43.40;;;13.70;91.30;;;12.92;75.39;100303.06;5048533;28;20516;-76
2023/04/29 01:10:48;;;;;;;78.45;41.17;;;13.60;91.00;;;12.86;75.46;100301.31;5045334;28;20148;-75
2023/04/29 01:13:25;;;;;;;74.95;40.15;;;13.60;91.30;;;12.87;75.63;100313.63;5047618;28;20041;-77
2023/04/29 01:16:02;;;;;;;77.78;42.88;;;13.60;91.20;;;12.88;75.34;100316.09;5046423;28;20055;-78
2023/04/29 01:18:36;;;;;;;83.72;42.05;;;13.60;91.20;;;12.90;75.22;100315.88;5046787;28;20045;-75
2023/04/29 01:21:04;;;;;;;82.40;42.78;;;13.60;91.20;;;12.91;75.00;100317.50;5046292;28;20049;-75
2023/04/29 01:23:32;;;;;;;82.90;44.03;;;13.60;91.00;;;12.89;74.95;100319.59;5046868;28;20073;-77
2023/04/29 01:26:00;;;;;;;93.05;45.15;;;13.60;90.80;;;12.84;74.73;100322.13;5038988;28;20479;-77
2023/04/29 01:28:50;;;;;;;84.03;41.67;;;13.50;90.80;;;12.82;74.85;100324.22;5039258;28;20420;-76
2023/04/29 01:31:25;;;;;;;80.65;40.53;;;13.50;90.90;;;12.82;74.60;100327.69;5046623;28;20098;-77
2023/04/29 01:34:08;;;;;;;77.28;38.70;;;13.50;90.80;;;12.66;74.39;100323.03;5046726;28;20055;-76
2023/04/29 01:36:47;;;;;;;84.75;42.10;;;13.40;90.40;;;12.66;74.73;100327.56;5038903;28;20064;-77
2023/04/29 01:39:26;;;;;;;81.90;41.50;;;13.40;90.60;;;12.70;74.59;100332.22;5044609;28;20083;-76
2023/04/29 01:42:15;;;;;;;86.27;43.30;;;13.40;90.70;;;12.67;74.63;100332.66;5043166;28;20052;-76
2023/04/29 01:44:43;;;;;;;91.97;43.60;;;13.40;90.70;;;12.69;74.83;100337.78;5038075;28;20044;-77
2023/04/29 01:47:14;;;;;;;90.00;45.38;;;13.40;90.80;;;12.70;74.78;100337.56;5046949;28;20056;-77
2023/04/29 01:49:47;;;;;;;97.20;46.00;;;13.40;90.80;;;12.72;74.57;100334.66;5035678;28;20575;-77
2023/04/29 01:52:14;;;;;;;107.13;49.10;;;13.40;90.70;;;12.72;74.57;100337.34;5043345;28;20509;-77
2023/04/29 01:54:51;;;;;;;111.88;50.40;;;13.40;90.80;;;12.68;74.49;100336.16;5037103;28;20596;-77
2023/04/29 01:57:19;;;;;;;103.93;51.05;;;13.30;90.80;;;12.67;74.57;100339.88;5043973;28;20152;-78
2023/04/29 02:00:10;;;;;;;107.68;50.85;;;13.30;90.80;;;12.62;74.66;100337.88;5044076;28;20057;-75
2023/04/29 02:02:40;;;;;;;106.30;50.85;;;13.30;90.90;;;12.62;74.79;100344.06;5045681;28;20052;-76
2023/04/29 02:05:26;;;;;;;103.63;50.03;;;13.30;90.90;;;12.65;74.43;100339.31;5035468;28;20057;-77
2023/04/29 02:07:56;;;;;;;115.85;50.53;;;13.30;90.80;;;12.66;74.86;100349.78;5049759;28;20051;-77
2023/04/29 02:10:25;;;;;;;107.85;50.08;;;13.30;91.00;;;12.65;74.58;100345.47;5048420;28;20432;-77
2023/04/29 02:13:01;;;;;;;117.15;51.60;;;13.30;90.90;;;12.64;74.58;100365.25;5051034;28;20082;-77
2023/04/29 02:15:30;;;;;;;108.63;48.25;;;13.30;90.90;;;12.62;74.79;100359.28;5048563;28;20072;-76
2023/04/29 02:17:57;;;;;;;110.00;47.30;;;13.30;91.00;;;12.61;74.93;100355.00;5062598;28;20143;-77
2023/04/29 02:20:24;;;;;;;104.03;43.53;;;13.30;91.00;;;12.60;74.45;100361.41;5050741;28;20119;-78
2023/04/29 02:22:51;;;;;;;119.90;46.53;;;13.20;90.80;;;12.57;74.52;100361.84;5048631;28;20095;-77
2023/04/29 02:25:19;;;;;;;109.13;45.47;;;13.20;90.70;;;12.55;74.55;100367.41;5043073;28;20049;-75
2023/04/29 02:27:47;;;;;;;100.90;42.95;;;13.20;90.60;;;12.56;74.44;100368.25;5048978;28;20681;-76
2023/04/29 02:30:14;;;;;;;94.57;41.70;;;13.20;90.60;;;12.54;74.35;100372.97;5049786;28;20045;-77
2023/04/29 02:32:41;;;;;;;91.22;41.17;;;13.20;90.60;;;12.54;74.37;100375.66;5048982;28;20068;-76
2023/04/29 02:35:09;;;;;;;78.63;37.30;;;13.20;90.40;;;12.54;74.12;100367.63;5049969;28;20068;-77
2023/04/29 02:37:37;;;;;;;81.05;37.60;;;13.20;90.20;;;12.52;73.39;100373.22;5050156;28;20048;-77
2023/04/29 02:40:06;;;;;;;72.00;35.80;;;13.20;89.90;;;12.50;73.42;100375.31;5050640;28;20116;-76
2023/04/29 02:42:33;;;;;;;77.53;36.60;;;13.20;90.00;;;12.51;73.34;100376.13;5049224;28;20037;-76
2023/04/29 02:45:03;;;;;;;73.97;36.10;;;13.20;90.00;;;12.49;73.31;100378.19;5050143;28;20053;-75
2023/04/29 02:47:30;;;;;;;72.00;35.42;;;13.10;89.80;;;12.46;73.19;100381.34;5049022;28;20076;-75
2023/04/29 02:49:57;;;;;;;68.28;34.40;;;13.10;89.80;;;12.47;72.93;100382.97;5050141;28;20040;-77
2023/04/29 02:52:24;;;;;;;68.63;32.70;;;13.10;89.70;;;12.44;72.97;100389.56;5043865;28;20118;-77
2023/04/29 02:54:51;;;;;;;60.53;31.33;;;13.10;89.70;;;12.41;72.80;100391.91;5046257;28;20041;-76
2023/04/29 02:57:19;;;;;;;58.75;31.10;;;13.10;89.70;;;12.40;72.86;100395.63;5048613;28;20045;-78
2023/04/29 02:59:46;;;;;;;57.33;30.73;;;13.10;89.80;;;12.40;73.42;100406.31;5050021;28;20041;-76
2023/04/29 03:02:15;;;;;;;57.53;30.48;;;13.10;90.00;;;12.40;73.19;100403.63;5047461;28;20437;-78
2023/04/29 03:04:44;;;;;;;60.45;30.17;;;13.10;89.90;;;12.38;73.05;100403.84;5042348;28;20473;-77
2023/04/29 03:07:11;;;;;;;55.70;30.20;;;13.00;90.00;;;12.37;73.17;100407.56;5042072;28;20408;-77
2023/04/29 03:09:39;;;;;;;59.63;30.00;;;13.00;90.00;;;12.37;73.21;100407.56;5048612;28;20051;-75
2023/04/29 03:12:06;;;;;;;57.90;29.65;;;13.10;90.00;;;12.36;73.16;100406.75;5047254;28;20143;-76
2023/04/29 03:14:33;;;;;;;56.88;30.15;;;13.10;90.00;;;12.35;73.01;100407.81;5039995;28;20135;-76
2023/04/29 03:17:00;;;;;;;55.15;29.35;;;13.00;89.80;;;12.33;73.21;100399.16;5046818;28;20464;-77
2023/04/29 03:19:29;;;;;;;58.65;30.88;;;13.00;90.00;;;12.33;73.16;100407.19;5047067;28;20044;-75
2023/04/29 03:21:56;;;;;;;58.00;31.35;;;13.00;90.00;;;12.32;73.39;100413.59;5047975;28;20132;-76
2023/04/29 03:24:24;;;;;;;50.88;28.17;;;13.00;90.00;;;12.31;73.41;100411.97;5041098;28;20091;-76
2023/04/29 03:26:51;;;;;;;51.70;27.85;;;13.00;90.00;;;12.31;73.39;100419.97;5050503;28;20045;-77
2023/04/29 03:29:20;;;;;;;48.75;26.00;;;13.00;90.00;;;12.31;73.33;100424.50;5039301;28;20051;-77
2023/04/29 03:31:48;;;;;;;53.45;27.80;;;13.00;90.00;;;12.31;73.30;100424.50;5049069;28;20059;-77
2023/04/29 03:34:15;;;;;;;50.70;27.13;;;13.00;90.00;;;12.30;73.45;100429.06;5038235;28;20127;-76
2023/04/29 03:36:50;;;;;;;49.72;27.98;;;13.00;90.00;;;12.27;73.42;100429.50;5048242;28;20049;-77
2023/04/29 03:39:17;;;;;;;51.03;28.05;;;13.00;90.10;;;12.29;73.34;100424.72;5048905;28;20098;-76
2023/04/29 03:41:44;;;;;;;50.60;28.42;;;13.00;90.20;;;12.29;73.35;100429.25;5032351;28;20509;-76
2023/04/29 03:44:12;;;;;;;54.50;28.02;;;13.00;90.20;;;12.28;73.38;100432.97;5040501;28;20127;-78
2023/04/29 03:46:40;;;;;;;52.95;28.98;;;13.00;90.00;;;12.28;73.21;100427.63;5048198;28;20386;-75
2023/04/29 03:49:07;;;;;;;60.28;29.60;;;13.00;90.00;;;12.28;73.42;100427.63;5046732;28;20056;-76
2023/04/29 03:51:34;;;;;;;54.13;29.33;;;13.00;90.00;;;12.26;73.30;100437.75;5047828;28;20052;-76
2023/04/29 03:54:12;;;;;;;48.95;27.77;;;12.90;90.20;;;12.22;73.27;100434.69;5046607;28;20053;-77
2023/04/29 03:56:39;;;;;;;48.53;27.60;;;12.90;90.20;;;12.22;73.51;100433.88;5045786;28;20066;-77
2023/04/29 03:59:07;;;;;;;52.97;28.33;;;12.90;90.20;;;12.21;73.46;100426.91;5044840;28;20060;-77
2023/04/29 04:01:35;;;;;;;51.08;27.58;;;12.90;90.20;;;12.21;73.48;100432.25;5048514;28;20041;-77
2023/04/29 04:04:02;;;;;;;48.53;26.50;;;12.80;90.20;;;12.20;73.55;100436.78;5045396;28;20056;-77
2023/04/29 04:06:31;;;;;;;44.90;26.98;;;12.90;90.40;;;12.18;73.48;100441.50;5048046;28;20049;-76
2023/04/29 04:08:58;;;;;;;47.70;26.13;;;12.90;90.30;;;12.18;73.61;100438.03;5046651;28;20098;-77
2023/04/29 04:11:30;;;;;;;44.30;25.63;;;12.80;90.10;;;12.19;73.52;100451.16;5047638;28;20132;-76
2023/04/29 04:14:00;;;;;;;48.38;25.88;;;12.90;90.20;;;12.19;73.60;100455.69;5042883;28;20049;-77
2023/04/29 04:16:28;;;;;;;48.50;25.88;;;12.90;90.40;;;12.17;73.69;100455.94;5047355;28;20095;-76
2023/04/29 04:18:55;;;;;;;41.97;23.88;;;12.80;90.20;;;12.17;73.72;100461.28;5045174;28;20154;-77
2023/04/29 04:21:22;;;;;;;45.20;25.33;;;12.80;90.20;;;12.14;73.88;100459.03;5049365;28;20095;-77
2023/04/29 04:23:58;;;;;;;43.78;24.83;;;12.90;90.50;;;12.05;73.83;100458.53;5037460;28;20045;-76
2023/04/29 04:26:26;;;;;;;46.92;24.70;;;12.70;90.40;;;12.05;74.04;100460.34;5045007;28;20126;-79
2023/04/29 04:29:09;;;;;;;39.05;23.15;;;12.70;90.70;;;12.07;74.03;100460.97;5045339;28;20416;-78
2023/04/29 04:31:46;;;;;;;42.85;24.60;;;12.70;90.60;;;12.07;73.92;100467.13;5031007;28;20505;-77
2023/04/29 04:34:13;;;;;;;42.00;24.08;;;12.70;90.60;;;12.10;73.98;100465.84;5038808;28;20049;-81
2023/04/29 04:36:41;;;;;;;39.95;23.35;;;12.80;90.60;;;12.09;73.83;100461.56;5047754;28;20048;-79
2023/04/29 04:39:08;;;;;;;42.83;24.25;;;12.80;90.60;;;12.08;73.91;100468.75;5047626;28;20049;-79
2023/04/29 04:41:36;;;;;;;39.15;23.10;;;12.70;90.60;;;12.08;73.85;100475.97;5046265;28;20055;-79
2023/04/29 04:44:04;;;;;;;43.40;24.77;;;12.70;90.60;;;12.07;74.16;100483.16;5047345;28;20103;-77
2023/04/29 04:46:42;;;;;;;43.15;24.35;;;12.70;90.70;;;12.05;73.83;100479.91;5040202;28;20044;-78
2023/04/29 04:49:14;;;;;;;38.47;22.58;;;12.70;90.50;;;12.06;73.77;100483.41;5046815;28;20057;-76
2023/04/29 04:51:52;;;;;;;42.88;23.85;;;12.80;90.50;;;12.05;73.85;100493.28;5041168;28;20064;-78
2023/04/29 04:54:19;;;;;;;39.92;22.63;;;12.70;90.40;;;12.04;73.80;100493.47;5047121;28;20463;-77
2023/04/29 04:56:51;;;;;;;39.58;23.25;;;12.70;90.50;;;12.04;73.68;100496.16;5050295;22;20056;-83
2023/04/29 04:59:18;;;;;;;46.28;24.23;;;12.70;90.40;;;12.02;73.96;100496.38;5048667;28;20132;-83
2023/04/29 05:01:46;;;;;;;42.80;24.45;;;12.70;90.60;;;12.04;73.73;100501.50;5063728;28;20102;-82
2023/04/29 05:04:15;;;;;;;40.33;23.70;;;12.70;90.50;;;12.05;73.69;100503.13;5047348;28;20072;-83
2023/04/29 05:06:42;;;;;;;40.72;24.40;;;12.70;90.40;;;12.05;73.73;100503.13;5036995;28;20045;-81
2023/04/29 05:09:09;;;;;;;36.63;22.20;;;12.70;90.40;;;12.05;73.93;100497.78;5035060;28;20129;-79
2023/04/29 05:11:37;;;;;;;41.55;23.88;;;12.80;90.60;;;12.05;73.83;100503.97;5026031;28;20108;-78
2023/04/29 05:14:13;;;;;;;48.33;23.60;;;12.70;90.60;;;12.04;73.88;100506.84;5038343;28;20089;-78
2023/04/29 05:16:40;;;;;;;41.97;24.00;;;12.70;90.60;;;12.04;73.70;100517.53;5015098;28;20030;-80
2023/04/29 05:19:10;;;;;;;50.67;25.20;;;12.70;90.50;;;12.04;73.92;100518.34;5023612;28;20049;-82
2023/04/29 05:21:40;;;;;;;40.58;22.85;;;12.70;90.50;;;12.05;73.82;100521.84;5026941;28;20513;-80
2023/04/29 05:24:09;;;;;;;39.33;22.95;;;12.70;90.40;;;12.04;73.56;100521.03;5027294;28;20048;-79
2023/04/29 05:26:37;;;;;;;43.88;24.38;;;12.70;90.40;;;12.05;73.86;100527.19;5040453;28;20066;-79
2023/04/29 05:29:06;;;;;;;40.75;23.70;;;12.80;90.40;;;12.05;73.71;100527.19;5028094;28;20050;-78
2023/04/29 05:31:42;;;;;;;37.83;22.42;;;12.70;90.40;;;12.07;74.07;100531.28;5026492;28;20048;-80
2023/04/29 05:34:11;;;;;;;44.05;24.85;;;12.80;90.40;;;12.07;73.91;100531.28;5023914;28;20046;-80
2023/04/29 05:36:38;;;;;;;39.13;22.58;;;12.80;90.40;;;12.08;73.69;100535.59;5038147;28;20049;-79
2023/04/29 05:39:05;;;;;;;38.55;22.77;;;12.80;90.30;;;12.06;73.64;100527.00;5040585;28;20104;-81
2023/04/29 05:41:33;;;;;;;38.88;23.38;;;12.70;90.20;;;12.04;73.61;100536.25;5011697;28;20046;-81
2023/04/29 05:44:20;;;;;;;37.00;23.65;;;12.70;90.20;;;12.06;73.45;100539.53;5027081;28;20049;-76
2023/04/29 05:46:48;;;;;;;38.78;23.58;;;12.70;90.20;;;12.05;73.74;100548.56;5026603;28;20099;-76
2023/04/29 05:49:16;;;;;;;40.90;24.30;;;12.80;90.30;;;12.05;74.11;100554.75;5025068;28;20069;-77
2023/04/29 05:51:43;;;;;;;42.08;23.73;;;12.80;90.40;;;12.07;73.68;100562.56;5028148;28;20088;-78
2023/04/29 05:54:11;;;;;;;43.13;24.63;;;12.70;90.40;;;12.07;73.49;100562.56;5043391;28;20530;-78
2023/04/29 05:56:38;;;;;;;41.72;23.25;;;12.80;90.20;;;12.06;73.50;100560.94;5040299;28;20088;-77
2023/04/29 05:59:05;;;;;;;38.97;23.50;;;12.80;90.10;;;12.07;73.32;100568.72;5025925;28;20045;-77
2023/04/29 06:01:32;;;;;;;38.58;23.35;;;12.80;90.10;;;12.07;73.46;100571.38;5023941;28;20058;-79
2023/04/29 06:04:00;;;;;;;40.25;24.10;;;12.80;90.10;;;12.07;73.16;100574.06;5042388;28;20065;-78
2023/04/29 06:06:38;;;;;;;42.95;24.90;;;12.80;90.00;;;12.07;73.26;100583.94;5037384;28;20036;-77
2023/04/29 06:09:08;;;;;;;;;;;12.80;90.00;;;12.08;73.14;100580.22;5028890;28;20135;-77
2023/04/29 06:11:35;;;;;;;39.03;22.85;;;12.80;89.70;;;12.06;73.33;100585.81;5038123;28;19933;-78
2023/04/29 06:14:02;;;;;;;35.97;22.65;;;12.80;89.90;;;12.06;73.25;100588.47;5026315;28;20072;-79
2023/04/29 06:16:30;;;;;;;36.70;22.35;;;12.80;89.80;;;12.06;73.17;100590.34;5026979;28;20127;-76
2023/04/29 06:18:57;;;;;;;40.75;23.50;;;12.80;89.90;;;12.07;73.06;100591.97;5043078;28;20053;-78
2023/04/29 06:21:24;;;;;;;36.13;22.98;;;12.80;89.70;;;12.07;72.66;100599.97;5047457;28;20073;-77
2023/04/29 06:23:53;;;;;;;36.85;23.20;;;12.80;89.70;;;12.07;72.88;100595.44;5040198;28;20046;-78
2023/04/29 06:26:21;;;;;;;39.88;23.70;;;12.70;89.90;;;12.06;73.26;100596.50;5043048;28;20091;-78
2023/04/29 06:28:48;;;;;;;37.42;23.17;;;12.80;90.00;;;12.05;73.12;100599.34;5022935;28;20326;-78
2023/04/29 06:31:16;;;;;;;34.65;22.23;;;12.70;90.00;;;12.05;73.02;100607.38;5022924;28;20422;-80
2023/04/29 06:33:54;;;;;;;39.20;23.45;;;12.70;90.10;;;12.05;73.28;100608.22;5018548;28;20041;-77
2023/04/29 06:36:21;;;;;;;40.58;24.13;;;12.70;90.00;;;12.04;73.31;100611.91;5041297;28;20048;-78
2023/04/29 06:39:09;;;;;;;41.15;24.13;;;12.70;90.10;;;12.01;73.34;100622.25;5016001;28;20477;-78
2023/04/29 06:41:55;;;;;;;38.42;23.35;;;12.70;90.20;;;11.99;73.41;100622.44;5022257;28;20341;-77
2023/04/29 06:44:45;;;;;;;42.75;24.95;;;12.70;90.20;;;11.99;73.50;100626.97;5019600;28;20544;-77
2023/04/29 06:47:31;;;;;;;35.42;23.77;;;12.70;90.30;;;11.99;73.73;100635.00;5023269;28;20049;-78
2023/04/29 06:50:19;;;;;;;41.15;24.65;;;12.70;90.40;;;12.01;73.66;100635.59;5024216;28;20562;-78
2023/04/29 06:52:46;;;;;;;39.58;23.77;;;12.70;90.50;;;11.98;73.44;100628.00;5027504;28;20041;-77
2023/04/29 06:55:15;;;;;;;36.70;22.88;;;12.70;90.40;;;11.98;73.55;100634.16;5029268;28;20068;-77
2023/04/29 06:57:43;;;;;;;40.17;23.88;;;12.70;90.40;;;11.98;73.61;100642.19;5011391;28;20060;-77
2023/04/29 07:00:11;;;;;;;39.30;23.58;;;12.70;90.40;;;12.00;73.53;100642.78;5028202;28;20041;-77
2023/04/29 07:02:38;;;;;;;41.42;23.35;;;12.70;90.40;;;12.02;73.55;100637.25;5031730;28;20091;-78
2023/04/29 07:05:07;;;;;;;41.67;24.35;;;12.70;90.40;;;12.03;73.63;100645.03;5029330;28;20048;-81
2023/04/29 07:07:35;;;;;;;40.83;24.35;;;12.70;90.40;;;12.04;73.84;100649.34;5010802;28;20049;-82
2023/04/29 07:10:05;;;;;;;46.67;24.48;;;12.70;90.60;;;12.05;73.74;100644.81;5028218;28;20124;-84
2023/04/29 07:12:33;;;;;;;39.03;24.52;;;12.70;90.60;;;12.03;73.42;100658.41;5018007;28;20045;-81
2023/04/29 07:15:01;;;;;;;37.33;22.10;;;12.70;90.30;;;12.01;73.54;100655.13;5028344;28;20041;-87
2023/04/29 07:17:30;;;;;;;36.55;22.95;;;12.70;90.40;;;12.03;73.33;100660.25;5014526;28;20049;-81
2023/04/29 07:19:58;;;;;;;38.78;22.67;;;12.70;90.20;;;12.02;73.24;100667.47;5036494;28;20049;-82
2023/04/29 07:22:25;;;;;;;36.53;22.65;;;12.70;90.00;;;12.02;73.29;100669.31;5025561;28;20051;-76
2023/04/29 07:24:54;;;;;;;38.30;24.23;;;12.70;90.00;;;12.02;73.48;100677.34;5032027;28;20153;-82
2023/04/29 07:27:21;;;;;;;45.38;23.75;;;12.70;90.10;;;12.03;73.53;100670.94;5025741;28;20111;-82
2023/04/29 07:29:50;;;;;;;34.92;22.35;;;12.70;90.20;;;12.03;73.27;100685.13;5028215;28;20049;-83
2023/04/29 07:32:17;;;;;;;38.63;23.38;;;12.70;90.00;;;12.02;73.47;100696.88;5010884;28;20067;-82
2023/04/29 07:34:44;;;;;;;40.95;24.60;;;12.70;90.10;;;12.01;73.13;100697.09;5011338;28;20045;-79
2023/04/29 07:37:12;;;;;;;42.17;25.83;;;12.70;90.00;;;12.00;72.92;100695.44;5011215;28;20038;-80
2023/04/29 07:39:41;;;;;;;38.38;24.15;;;12.70;89.90;;;12.00;73.34;100706.94;5012202;28;20103;-79
2023/04/29 07:42:09;;;;;;;41.08;25.38;;;12.70;90.00;;;12.00;73.17;100708.78;5013074;28;20159;-81
2023/04/29 07:44:36;;;;;;;38.92;24.38;;;12.70;90.00;;;12.00;73.37;100706.94;5009425;28;20041;-81
2023/04/29 07:47:05;;;;;;;40.30;23.88;;;12.70;90.20;;;12.01;73.32;100702.44;5012319;28;20048;-80
2023/04/29 07:49:32;;;;;;;43.50;24.02;;;12.70;90.00;;;12.01;73.32;100721.16;5027310;28;20053;-80
2023/04/29 07:51:59;;;;;;;39.63;23.40;;;12.70;90.20;;;12.01;73.44;100718.47;5024195;28;20513;-80
2023/04/29 07:54:26;;;;;;;37.55;22.98;;;12.70;90.40;;;12.01;73.52;100718.47;5014784;28;20041;-81
2023/04/29 07:56:54;;;;;;;39.00;25.00;;;12.70;90.20;;;12.00;73.59;100717.63;5025079;28;20085;-85
2023/04/29 07:59:21;;;;;;;40.97;24.83;;;12.70;90.20;;;12.01;73.60;100723.81;5027794;28;20069;-81
2023/04/29 08:01:48;;;;;;;43.67;25.75;;;12.70;90.20;;;12.01;73.66;100721.16;5032349;28;20501;-82
2023/04/29 08:04:18;;;;;;;42.80;25.67;;;12.70;90.30;;;12.00;73.68;100724.84;5045810;28;20041;-82
2023/04/29 08:06:51;;;;;;;44.65;26.23;;;12.70;90.30;;;11.99;73.56;100732.03;5041205;28;20056;-82
2023/04/29 08:09:18;;;;;;;47.33;28.13;;;12.70;90.20;;;11.99;73.71;100734.69;5028407;28;20049;-82
2023/04/29 08:11:46;;;;;;;46.85;26.67;;;12.70;90.40;;;12.00;73.94;100746.22;5027716;28;20058;-82
2023/04/29 08:14:13;;;;;;;46.60;27.85;;;12.70;90.30;;;11.99;74.00;100749.94;5032879;28;20251;-84
2023/04/29 08:16:42;;;;;;;50.55;28.58;;;12.70;90.40;;;11.99;73.51;100747.25;5031287;28;20120;-85
2023/04/29 08:19:10;;;;;;;50.88;28.90;;;12.70;90.20;;;11.98;73.60;100750.97;5037004;28;20045;-81
2023/04/29 08:21:39;;;;;;;51.20;29.52;;;12.70;90.10;;;11.98;73.75;100751.78;5038113;28;20116;-84
2023/04/29 08:24:06;;;;;;;55.00;30.35;;;12.70;90.40;;;11.99;73.68;100747.25;5036019;28;20204;-81
2023/04/29 08:26:33;;;;;;;54.15;31.00;;;12.70;90.30;;;11.97;73.77;100754.69;5028635;28;20051;-83
2023/04/29 08:29:00;;;;;;;55.90;31.65;;;12.70;90.40;;;11.97;74.09;100762.69;5033671;28;20115;-82
2023/04/29 08:31:28;;;;;;;50.45;29.75;;;12.70;90.60;;;11.94;73.34;100765.78;5033603;28;20048;-83
2023/04/29 08:33:57;;;;;;;55.75;30.55;;;12.70;90.10;;;11.92;73.55;100768.69;5029144;28;20053;-83
2023/04/29 08:36:27;;;;;;;59.22;31.73;;;12.70;90.40;;;11.92;73.57;100762.50;5033330;28;20570;-83
2023/04/29 08:38:56;;;;;;;56.97;31.02;;;12.60;90.20;;;11.93;73.58;100764.16;5026996;28;20049;-81
2023/04/29 08:41:24;;;;;;;65.75;31.58;;;12.60;90.30;;;11.93;73.78;100770.31;5022786;28;20140;-83
2023/04/29 08:43:51;;;;;;;70.90;38.03;;;12.70;90.50;;;11.92;73.65;100770.53;5027843;28;20051;-83
2023/04/29 08:46:19;;;;;;;67.82;37.20;;;12.70;90.40;;;11.91;73.69;100780.41;5024641;28;20071;-83
2023/04/29 08:48:47;;;;;;;68.13;37.75;;;12.70;90.40;;;11.90;73.56;100778.75;5027684;28;20103;-81
2023/04/29 08:51:14;;;;;;;68.38;37.78;;;12.60;90.20;;;11.91;73.76;100777.72;5023665;28;20140;-81
2023/04/29 08:53:41;;;;;;;73.68;38.97;;;12.70;90.40;;;11.92;73.53;100787.38;5028100;28;20126;-80
2023/04/29 08:56:19;;;;;;;68.25;37.55;;;12.60;90.20;;;11.93;73.66;100793.56;5025543;28;20041;-81
2023/04/29 08:58:46;;;;;;;65.82;34.72;;;12.70;90.20;;;11.93;73.76;100788.22;5028301;28;20041;-78
2023/04/29 09:01:14;;;;;;;62.15;34.65;;;12.70;90.30;;;11.95;74.08;100791.47;5023119;28;20038;-77
2023/04/29 09:03:51;;;;;;;59.72;34.45;;;12.70;90.40;;;11.96;73.73;100790.47;5027578;28;20068;-77
2023/04/29 09:06:18;;;;;;;69.25;37.92;;;12.70;90.70;;;11.96;73.70;100790.47;5024089;28;20045;-78
2023/04/29 09:08:46;;;;;;;72.78;40.72;;;12.70;90.20;;;11.96;73.59;100798.50;5016432;28;20329;-78
2023/04/29 09:11:15;;;;;;;63.92;36.65;;;12.70;90.20;;;11.96;73.51;100795.81;5024376;28;20087;-77
2023/04/29 09:13:42;;;;;;;57.13;33.08;;;12.90;90.40;;;11.96;73.42;100801.16;5025951;28;20099;-77
2023/04/29 09:16:13;;;;;;;64.60;33.67;;;12.70;90.10;;;11.97;73.63;100808.97;5028062;28;20099;-77
2023/04/29 09:18:46;;;;;;;58.88;34.20;;;12.70;90.20;;;11.96;73.40;100806.50;5028751;28;20048;-78
2023/04/29 09:21:15;;;;;;;56.40;33.88;;;12.70;90.10;;;11.96;73.50;100817.19;5025989;28;20084;-77
2023/04/29 09:23:43;;;;;;;59.75;34.72;;;12.70;90.20;;;11.97;73.41;100818.81;5020368;28;20128;-77
2023/04/29 09:26:10;;;;;;;57.50;34.95;;;12.70;90.10;;;11.98;73.81;100812.44;5028228;28;20683;-78
2023/04/29 09:28:42;;;;;;;68.53;37.00;;;12.70;90.30;;;11.99;73.80;100816.75;5024575;28;20048;-78
2023/04/29 09:31:10;;;;;;;63.58;36.63;;;12.70;90.40;;;12.00;73.79;100823.72;5021688;28;20061;-77
2023/04/29 09:33:54;;;;;;;62.55;35.95;;;12.70;90.30;;;12.02;73.91;100822.50;5021572;28;20523;-77
2023/04/29 09:36:39;;;;;;;59.65;35.55;;;12.80;90.50;;;12.04;73.70;100824.97;5026365;28;20052;-78
2023/04/29 09:39:10;;;;;;;66.55;35.67;;;12.80;90.20;;;12.05;73.69;100835.47;5026520;28;20041;-77
2023/04/29 09:41:39;;;;;;;;;;;13.00;90.40;;;12.07;73.98;100830.72;5027572;28;20057;-76
2023/04/29 09:44:10;;;;;;;66.15;37.38;;;12.90;90.60;;;12.07;73.93;100828.03;5024830;28;20607;-77
2023/04/29 09:46:38;;;;;;;64.57;38.00;;;12.80;90.40;;;12.09;74.06;100833.16;5014386;28;20129;-78
2023/04/29 09:49:23;;;;;;;61.10;37.80;;;12.80;90.50;;;12.09;73.93;100833.16;5026924;28;20052;-77
2023/04/29 09:51:55;;;;;;;67.55;38.25;;;12.80;90.40;;;12.10;73.85;100834.78;5021167;28;20048;-78
2023/04/29 09:54:24;;;;;;;64.32;37.55;;;12.80;90.40;;;12.11;73.46;100841.81;5027578;28;20631;-76
2023/04/29 09:56:53;;;;;;;64.05;37.20;;;12.80;90.10;;;12.10;73.32;100840.16;5028094;28;20055;-78
2023/04/29 09:59:23;;;;;;;68.40;37.97;;;12.90;90.00;;;12.08;73.25;100832.34;5027636;28;20068;-78
2023/04/29 10:01:54;;;;;;;67.53;37.30;;;12.80;89.80;;;12.11;73.42;100842.63;5020157;28;20068;-76
2023/04/29 10:04:22;;;;;;;71.40;38.57;;;12.90;90.20;;;12.14;73.17;100845.91;5024248;28;20113;-77
2023/04/29 10:06:51;;;;;;;61.10;37.28;;;12.90;90.00;;;12.15;73.14;100848.38;5023423;28;20056;-76
2023/04/29 10:09:20;;;;;;;65.35;36.33;;;12.90;90.10;;;12.17;72.88;100846.31;5028702;28;20116;-76
2023/04/29 10:11:49;;;;;;;60.45;35.50;;;12.90;89.70;;;12.20;73.15;100851.22;5021867;28;20041;-76